Terminal Aerodrome Forecast
Issued by NWS

Home | Current Version | Previous Version | Text Only | Print | Product List | Glossary On
Versions: 1 2 3 4 5 6 7 8 9 10 11 12 13
548
FTPA31 PHFO 031123
TAFHKO
TAF
PHKO 031123Z 0312/0412 VRB05KT P6SM FEW050 SCT150
     FM032100 34010KT P6SM VCSH FEW030 SCT050
     FM040500 04007KT P6SM BKN050=

USA.gov is the U.S. government's official web portal to all federal, state and local government web resources and services.